createdAt,value
2023-01-23T00:01:37.957Z,20.30
2023-01-23T00:04:05.908Z,21.08
2023-01-23T00:06:33.514Z,20.35
2023-01-23T00:09:04.505Z,21.40
2023-01-23T00:11:32.106Z,21.17
2023-01-23T00:14:03.088Z,20.65
2023-01-23T00:16:32.548Z,22.63
2023-01-23T00:19:02.358Z,22.50
2023-01-23T00:21:32.241Z,20.92
2023-01-23T00:24:03.072Z,22.10
2023-01-23T00:26:34.605Z,21.47
2023-01-23T00:29:04.907Z,21.95
2023-01-23T00:31:34.900Z,21.13
2023-01-23T00:34:08.343Z,20.90
2023-01-23T00:36:38.308Z,22.47
2023-01-23T00:39:08.825Z,20.53
2023-01-23T00:41:36.188Z,20.60
2023-01-23T00:44:03.710Z,21.00
2023-01-23T00:46:34.976Z,21.80
2023-01-23T00:49:08.037Z,21.75
2023-01-23T00:51:35.313Z,22.17
2023-01-23T00:54:02.952Z,21.05
2023-01-23T00:56:30.657Z,22.63
2023-01-23T00:58:58.213Z,21.70
2023-01-23T01:01:26.209Z,22.50
2023-01-23T01:03:53.713Z,21.27
2023-01-23T01:06:21.082Z,22.23
2023-01-23T01:08:48.523Z,21.83
2023-01-23T01:11:15.900Z,21.85
2023-01-23T01:13:44.682Z,21.37
2023-01-23T01:16:12.527Z,21.75
2023-01-23T01:18:40.221Z,21.30
2023-01-23T01:21:09.735Z,20.83
2023-01-23T01:23:40.827Z,21.17
2023-01-23T01:26:11.416Z,21.48
2023-01-23T01:28:40.487Z,21.42
2023-01-23T01:31:17.414Z,20.88
2023-01-23T01:33:45.396Z,20.90
2023-01-23T01:36:18.308Z,20.60
2023-01-23T01:38:45.702Z,20.90
2023-01-23T01:41:14.497Z,21.38
2023-01-23T01:43:42.259Z,21.75
2023-01-23T01:46:26.131Z,20.83
2023-01-23T01:49:14.405Z,20.53
2023-01-23T01:51:53.264Z,22.00
2023-01-23T01:54:39.421Z,22.13
2023-01-23T01:57:18.512Z,21.63
2023-01-23T02:00:07.061Z,22.00
2023-01-23T02:02:40.556Z,20.95
2023-01-23T02:05:12.126Z,21.03
2023-01-23T02:07:47.852Z,21.58
2023-01-23T02:10:16.690Z,22.10
2023-01-23T02:12:48.647Z,20.88
2023-01-23T02:15:17.464Z,20.83
2023-01-23T02:17:45.387Z,21.40
2023-01-23T02:20:19.699Z,20.58
2023-01-23T02:23:03.699Z,21.63
2023-01-23T02:25:33.825Z,21.07
2023-01-23T02:28:03.480Z,22.20
2023-01-23T02:30:30.873Z,21.97
2023-01-23T02:33:20.011Z,21.90
2023-01-23T02:35:47.713Z,21.20
2023-01-23T02:38:15.297Z,21.57
2023-01-23T02:40:44.785Z,22.23
2023-01-23T02:43:21.292Z,22.00
2023-01-23T02:45:48.787Z,20.13
2023-01-23T02:48:18.551Z,22.20
2023-01-23T02:50:46.536Z,21.17
2023-01-23T02:53:16.418Z,22.17
2023-01-23T02:55:46.027Z,22.73
2023-01-23T02:58:31.832Z,22.50
2023-01-23T03:01:01.551Z,20.80
2023-01-23T03:03:33.675Z,22.27
2023-01-23T03:06:04.023Z,21.53
2023-01-23T03:08:36.290Z,20.80
2023-01-23T03:11:05.165Z,21.00
2023-01-23T03:13:33.058Z,22.27
2023-01-23T03:16:00.405Z,21.77
2023-01-23T03:18:31.031Z,22.00
2023-01-23T03:21:05.813Z,22.17
2023-01-23T03:23:33.095Z,21.97
2023-01-23T03:26:00.455Z,22.83
2023-01-23T03:28:47.162Z,22.15
2023-01-23T03:31:15.282Z,21.83
2023-01-23T03:33:44.211Z,22.73
2023-01-23T03:36:13.178Z,22.63
2023-01-23T03:39:00.685Z,22.50
2023-01-23T03:41:30.268Z,20.70
2023-01-23T03:44:05.095Z,21.37
2023-01-23T03:46:32.357Z,22.43
2023-01-23T03:49:02.095Z,22.57
2023-01-23T03:51:31.859Z,21.33
2023-01-23T03:53:59.120Z,22.07
2023-01-23T03:56:28.637Z,22.40
2023-01-23T03:58:56.021Z,23.00
2023-01-23T04:01:26.024Z,21.70
2023-01-23T04:03:53.318Z,20.50
2023-01-23T04:06:20.827Z,21.37
2023-01-23T04:08:48.190Z,22.37
2023-01-23T04:11:18.168Z,21.80
2023-01-23T04:13:47.863Z,21.77
2023-01-23T04:16:15.270Z,21.27
2023-01-23T04:18:42.907Z,21.77
2023-01-23T04:21:10.439Z,21.37
2023-01-23T04:23:37.747Z,21.37
2023-01-23T04:26:07.471Z,23.17
2023-01-23T04:28:37.047Z,21.80
2023-01-23T04:31:14.082Z,21.33
2023-01-23T04:33:41.475Z,21.53
2023-01-23T04:36:08.940Z,21.10
2023-01-23T04:38:38.585Z,21.67
2023-01-23T04:41:09.848Z,22.97
2023-01-23T04:43:37.188Z,22.50
2023-01-23T04:46:06.935Z,21.77
2023-01-23T04:48:37.122Z,23.23
2023-01-23T04:51:07.197Z,23.40
2023-01-23T04:53:34.641Z,23.50
2023-01-23T04:56:02.093Z,23.37
2023-01-23T04:58:29.633Z,23.57
2023-01-23T05:01:07.957Z,22.10
2023-01-23T05:03:35.521Z,23.90
2023-01-23T05:06:05.465Z,24.50
2023-01-23T05:08:35.404Z,23.50
2023-01-23T05:11:05.088Z,24.07
2023-01-23T05:13:32.337Z,23.30
2023-01-23T05:15:59.653Z,23.20
2023-01-23T05:18:30.205Z,24.00
2023-01-23T05:21:00.036Z,25.10
2023-01-23T05:23:29.809Z,23.77
2023-01-23T05:25:57.341Z,22.95
2023-01-23T05:28:24.724Z,24.13
2023-01-23T05:30:52.106Z,23.37
2023-01-23T05:33:22.035Z,24.55
2023-01-23T05:35:49.411Z,25.07
2023-01-23T05:38:16.953Z,23.92
2023-01-23T05:40:44.296Z,24.13
2023-01-23T05:43:17.935Z,23.85
2023-01-23T05:45:47.588Z,24.80
2023-01-23T05:48:15.276Z,23.90
2023-01-23T05:50:42.577Z,24.50
2023-01-23T05:53:09.926Z,23.48
2023-01-23T05:55:40.389Z,24.27
2023-01-23T05:58:10.982Z,24.63
2023-01-23T06:00:42.274Z,25.07
2023-01-23T06:03:14.207Z,24.83
2023-01-23T06:05:44.447Z,24.17
2023-01-23T06:08:11.972Z,23.70
2023-01-23T06:10:39.307Z,24.63
2023-01-23T06:13:07.088Z,24.07
2023-01-23T06:15:34.506Z,25.00
2023-01-23T06:18:05.171Z,26.27
2023-01-23T06:20:37.307Z,25.03
2023-01-23T06:23:08.262Z,24.50
2023-01-23T06:25:37.339Z,23.92
2023-01-23T06:28:06.140Z,24.30
2023-01-23T06:30:37.693Z,24.65
2023-01-23T06:33:12.119Z,23.05
2023-01-23T06:35:41.681Z,25.90
2023-01-23T06:38:11.241Z,23.83
2023-01-23T06:40:38.513Z,24.97
2023-01-23T06:43:06.201Z,26.00
2023-01-23T06:45:33.487Z,26.27
2023-01-23T06:48:00.768Z,26.97
2023-01-23T06:50:28.081Z,25.50
2023-01-23T06:52:57.785Z,25.53
2023-01-23T06:55:25.146Z,26.03
2023-01-23T06:57:54.737Z,24.97
2023-01-23T07:00:22.722Z,23.93
2023-01-23T07:02:50.618Z,26.20
2023-01-23T07:05:17.898Z,25.80
2023-01-23T07:07:48.540Z,27.80
2023-01-23T07:10:16.102Z,27.57
2023-01-23T07:12:45.896Z,26.90
2023-01-23T07:15:13.291Z,27.00
2023-01-23T07:17:40.751Z,27.73
2023-01-23T07:20:11.368Z,27.35
2023-01-23T07:22:38.716Z,27.40
2023-01-23T07:25:06.672Z,27.87
2023-01-23T07:27:36.403Z,28.10
2023-01-23T07:30:04.377Z,28.83
2023-01-23T07:32:31.669Z,27.53
2023-01-23T07:34:58.963Z,29.07
2023-01-23T07:37:26.356Z,27.70
2023-01-23T07:39:58.314Z,28.67
2023-01-23T07:42:25.618Z,27.00
2023-01-23T07:44:53.156Z,26.40
2023-01-23T07:47:23.204Z,27.57
2023-01-23T07:49:53.082Z,28.00
2023-01-23T07:52:20.423Z,26.90
2023-01-23T07:54:47.751Z,28.02
2023-01-23T07:57:15.012Z,27.87
2023-01-23T07:59:42.301Z,27.17
2023-01-23T08:02:12.882Z,29.77
2023-01-23T08:04:40.235Z,29.08
2023-01-23T08:07:08.014Z,29.17
2023-01-23T08:09:35.363Z,29.07
2023-01-23T08:12:02.723Z,29.03
2023-01-23T08:14:30.093Z,29.37
2023-01-23T08:16:57.400Z,29.00
2023-01-23T08:19:30.054Z,29.90
2023-01-23T08:21:57.345Z,30.45
2023-01-23T08:24:24.661Z,30.13
2023-01-23T08:26:54.145Z,30.03
2023-01-23T08:29:23.730Z,31.13
2023-01-23T08:31:54.908Z,30.63
2023-01-23T08:34:24.107Z,30.83
2023-01-23T08:36:51.754Z,31.03
2023-01-23T08:39:21.653Z,30.30
2023-01-23T08:41:49.035Z,31.73
2023-01-23T08:44:16.458Z,29.97
2023-01-23T08:46:45.142Z,31.80
2023-01-23T08:49:15.430Z,32.10
2023-01-23T08:51:44.869Z,31.80
2023-01-23T08:54:12.592Z,31.23
2023-01-23T08:56:41.993Z,33.70
2023-01-23T08:59:09.314Z,32.78
2023-01-23T09:01:36.649Z,32.37
2023-01-23T09:04:04.014Z,30.27
2023-01-23T09:06:31.575Z,29.10
2023-01-23T09:09:01.296Z,29.88
2023-01-23T09:11:28.761Z,28.87
2023-01-23T09:13:56.313Z,28.85
2023-01-23T09:16:23.781Z,28.00
2023-01-23T09:18:53.336Z,30.60
2023-01-23T09:21:22.819Z,28.02
2023-01-23T09:23:54.616Z,29.60
2023-01-23T09:28:51.523Z,28.20
2023-01-23T09:31:23.214Z,28.77
2023-01-23T09:33:50.600Z,29.52
2023-01-23T09:36:17.927Z,28.63
2023-01-23T09:38:47.670Z,28.80
2023-01-23T09:41:26.119Z,30.05
2023-01-23T09:44:10.917Z,29.60
2023-01-23T09:46:47.955Z,29.67
2023-01-23T09:49:38.719Z,28.73
2023-01-23T09:52:22.550Z,29.23
2023-01-23T09:54:55.561Z,30.47
2023-01-23T09:57:31.170Z,29.67
2023-01-23T10:00:07.977Z,31.13
2023-01-23T10:02:35.507Z,28.00
2023-01-23T10:05:03.306Z,27.90
2023-01-23T10:08:01.566Z,27.33
2023-01-23T10:11:04.608Z,29.13
2023-01-23T10:13:40.767Z,29.10
2023-01-23T10:16:49.514Z,28.42
2023-01-23T10:20:08.964Z,27.52
2023-01-23T10:22:57.362Z,27.10
2023-01-23T10:25:30.154Z,27.05
2023-01-23T10:28:11.385Z,25.30
2023-01-23T10:30:41.688Z,25.05
2023-01-23T10:33:16.123Z,24.75
2023-01-23T10:35:51.811Z,25.20
2023-01-23T10:38:46.434Z,26.55
2023-01-23T10:41:17.598Z,25.30
2023-01-23T10:43:51.868Z,25.83
2023-01-23T10:46:35.511Z,25.90
2023-01-23T10:49:06.170Z,25.13
2023-01-23T10:51:38.733Z,27.45
2023-01-23T10:54:32.324Z,27.33
2023-01-23T10:57:03.045Z,26.30
2023-01-23T10:59:41.405Z,27.52
2023-01-23T11:02:16.997Z,27.50
2023-01-23T11:04:51.904Z,27.02
2023-01-23T11:07:27.624Z,26.35
2023-01-23T11:10:08.295Z,26.83
2023-01-23T11:12:48.725Z,27.55
2023-01-23T11:15:25.495Z,26.55
2023-01-23T11:17:54.638Z,26.17
2023-01-23T11:20:37.295Z,27.95
2023-01-23T11:23:15.730Z,27.17
2023-01-23T11:25:47.229Z,27.05
2023-01-23T11:28:33.927Z,27.15
2023-01-23T11:31:16.198Z,28.80
2023-01-23T11:33:53.192Z,27.67
2023-01-23T11:36:36.049Z,29.10
2023-01-23T11:39:22.266Z,26.13
2023-01-23T11:41:49.891Z,28.02
2023-01-23T11:44:22.717Z,26.40
2023-01-23T11:47:08.335Z,28.63
2023-01-23T11:50:00.567Z,26.73
2023-01-23T11:52:53.488Z,28.20
2023-01-23T11:55:39.453Z,27.73
2023-01-23T11:58:14.693Z,28.17
2023-01-23T12:00:58.609Z,27.90
2023-01-23T12:03:50.388Z,27.33
2023-01-23T12:06:44.325Z,26.15
2023-01-23T12:09:14.728Z,27.00
2023-01-23T12:12:00.827Z,28.45
2023-01-23T12:14:48.692Z,28.15
2023-01-23T12:17:22.600Z,28.08
2023-01-23T12:20:29.981Z,27.58
2023-01-23T12:23:02.875Z,27.30
2023-01-23T12:25:38.853Z,26.63
2023-01-23T12:28:20.179Z,26.90
2023-01-23T12:31:03.004Z,26.83
2023-01-23T12:33:49.776Z,25.63
2023-01-23T12:36:40.283Z,26.58
2023-01-23T12:39:33.201Z,27.13
2023-01-23T12:42:04.507Z,26.90
2023-01-23T12:44:37.704Z,26.83
2023-01-23T12:47:12.219Z,24.95
2023-01-23T12:49:50.993Z,24.75
2023-01-23T12:52:29.822Z,25.70
2023-01-23T12:55:22.747Z,26.13
2023-01-23T12:58:09.085Z,25.73
2023-01-23T13:01:20.872Z,26.48
2023-01-23T13:04:09.147Z,25.08
2023-01-23T13:06:57.099Z,25.55
2023-01-23T13:09:43.101Z,26.08
2023-01-23T13:12:28.245Z,25.73
2023-01-23T13:15:19.054Z,25.38
2023-01-23T13:17:51.528Z,26.58
2023-01-23T13:20:46.852Z,25.75
2023-01-23T13:23:35.289Z,29.15
2023-01-23T13:26:22.922Z,27.00
2023-01-23T13:28:57.461Z,36.80
2023-01-23T13:31:36.437Z,28.45
2023-01-23T13:34:34.813Z,27.13
2023-01-23T13:37:51.085Z,27.83
2023-01-23T13:40:22.583Z,26.75
2023-01-23T13:42:50.067Z,26.20
2023-01-23T13:45:24.303Z,25.85
2023-01-23T14:23:01.541Z,23.92
2023-01-23T14:25:31.786Z,25.27
2023-01-23T14:28:04.217Z,24.37
2023-01-23T14:30:33.785Z,24.60
2023-01-23T14:33:01.058Z,24.07
2023-01-23T14:35:33.079Z,24.73
2023-01-23T14:38:07.898Z,25.80
2023-01-23T14:40:50.755Z,24.20
2023-01-23T14:43:22.196Z,25.15
2023-01-23T14:45:57.188Z,23.90
2023-01-23T14:48:24.748Z,24.80
2023-01-23T14:51:08.268Z,25.77
2023-01-23T14:53:39.767Z,23.92
2023-01-23T14:56:08.858Z,24.73
2023-01-23T14:58:36.583Z,23.33
2023-01-23T15:01:04.364Z,24.23
2023-01-23T15:03:39.670Z,24.63
2023-01-23T15:06:18.247Z,22.83
2023-01-23T15:08:46.439Z,21.95
2023-01-23T15:11:17.260Z,23.20
2023-01-23T15:13:54.964Z,23.03
2023-01-23T15:16:26.219Z,23.15
2023-01-23T15:19:21.001Z,23.67
2023-01-23T15:21:48.889Z,21.73
2023-01-23T15:24:16.501Z,21.65
2023-01-23T15:26:45.195Z,22.40
2023-01-23T15:29:12.433Z,21.80
2023-01-23T15:31:42.154Z,22.95
2023-01-23T15:34:15.410Z,21.88
2023-01-23T15:36:53.884Z,20.98
2023-01-23T15:39:24.016Z,22.45
2023-01-23T15:41:57.591Z,20.58
2023-01-23T15:44:28.755Z,21.77
2023-01-23T15:47:00.923Z,20.27
2023-01-23T15:49:29.023Z,20.92
2023-01-23T15:52:02.945Z,20.27
2023-01-23T15:54:37.431Z,21.10
2023-01-23T15:57:08.971Z,21.13
2023-01-23T15:59:37.070Z,20.15
2023-01-23T16:02:08.222Z,20.33
2023-01-23T16:04:38.337Z,19.70
2023-01-23T16:07:16.936Z,19.73
2023-01-23T16:09:47.419Z,19.52
2023-01-23T16:12:17.704Z,19.25
2023-01-23T16:14:46.473Z,19.65
2023-01-23T16:17:17.046Z,19.15
2023-01-23T16:19:44.817Z,19.20
2023-01-23T16:22:14.801Z,20.70
2023-01-23T16:24:42.897Z,19.15
2023-01-23T16:27:18.989Z,19.50
2023-01-23T16:29:49.353Z,19.30
2023-01-23T16:32:17.338Z,19.83
2023-01-23T16:34:45.048Z,19.80
2023-01-23T16:37:16.129Z,21.05
2023-01-23T16:39:47.299Z,20.55
2023-01-23T16:42:22.880Z,20.20
2023-01-23T16:44:50.728Z,19.15
2023-01-23T16:47:18.232Z,19.90
2023-01-23T16:49:54.303Z,20.50
2023-01-23T16:52:25.141Z,20.17
2023-01-23T16:54:53.617Z,21.70
2023-01-23T16:57:21.672Z,20.80
2023-01-23T16:59:50.072Z,22.27
2023-01-23T17:02:25.934Z,20.67
2023-01-23T17:04:53.342Z,22.25
2023-01-23T17:07:20.792Z,21.27
2023-01-23T17:09:49.290Z,21.60
2023-01-23T17:12:21.076Z,21.83
2023-01-23T17:14:49.683Z,21.25
2023-01-23T17:17:25.236Z,22.70
2023-01-23T17:19:52.874Z,21.10
2023-01-23T17:22:31.032Z,20.83
2023-01-23T17:25:01.085Z,21.75
2023-01-23T17:27:34.340Z,22.92
2023-01-23T17:30:30.329Z,22.08
2023-01-23T17:32:58.357Z,20.80
2023-01-23T17:35:44.567Z,22.55
2023-01-23T17:38:22.899Z,22.03
2023-01-23T17:40:50.942Z,21.48
2023-01-23T17:43:19.679Z,22.47
2023-01-23T17:45:51.876Z,24.10
2023-01-23T17:48:27.252Z,21.45
2023-01-23T17:50:57.564Z,23.05
2023-01-23T17:53:28.061Z,22.25
2023-01-23T17:55:55.431Z,24.13
2023-01-23T17:58:25.921Z,23.40
2023-01-23T18:00:53.860Z,22.38
2023-01-23T18:03:22.584Z,21.80
2023-01-23T18:05:49.912Z,23.65
2023-01-23T18:08:22.731Z,23.75
2023-01-23T18:10:58.924Z,24.08
2023-01-23T18:13:55.150Z,24.55
2023-01-23T18:16:26.615Z,24.13
2023-01-23T18:19:00.677Z,23.35
2023-01-23T18:21:30.386Z,22.50
2023-01-23T18:23:58.055Z,24.15
2023-01-23T18:26:31.079Z,22.20
2023-01-23T18:29:10.291Z,23.00
2023-01-23T18:31:46.737Z,22.50
2023-01-23T18:34:41.908Z,21.42
2023-01-23T18:37:23.918Z,23.25
2023-01-23T18:45:27.231Z,22.47
2023-01-23T18:47:55.545Z,23.33
2023-01-23T18:50:25.283Z,22.73
2023-01-23T18:53:11.833Z,23.03
2023-01-23T18:55:53.240Z,22.42
2023-01-23T18:58:30.674Z,22.85
2023-01-23T19:01:33.161Z,24.02
2023-01-23T19:04:01.105Z,23.15
2023-01-23T19:06:34.773Z,23.30
2023-01-23T19:09:02.395Z,22.98
2023-01-23T19:12:02.047Z,24.73
2023-01-23T19:14:56.250Z,23.25
2023-01-23T19:17:45.590Z,23.17
2023-01-23T19:20:37.063Z,23.20
2023-01-23T19:23:30.477Z,23.10
2023-01-23T19:25:58.117Z,26.00
2023-01-23T19:28:28.249Z,24.58
2023-01-23T19:30:58.819Z,23.70
2023-01-23T19:33:26.126Z,24.02
2023-01-23T19:35:56.573Z,25.10
2023-01-23T19:38:26.507Z,23.27
2023-01-23T19:40:54.985Z,23.35
2023-01-23T19:43:22.266Z,23.15
2023-01-23T19:45:49.529Z,23.30
2023-01-23T19:48:16.892Z,24.75
2023-01-23T19:50:46.655Z,24.13
2023-01-23T19:53:17.353Z,22.58
2023-01-23T19:55:47.499Z,23.73
2023-01-23T19:58:17.203Z,24.15
2023-01-23T20:00:44.539Z,24.00
2023-01-23T20:03:14.756Z,25.10
2023-01-23T20:05:42.056Z,24.05
2023-01-23T20:08:10.191Z,25.45
2023-01-23T20:10:37.603Z,24.25
2023-01-23T20:13:04.944Z,23.88
2023-01-23T20:15:33.774Z,25.55
2023-01-23T20:18:01.042Z,25.77
2023-01-23T20:20:28.266Z,25.15
2023-01-23T20:22:57.692Z,26.42
2023-01-23T20:25:24.960Z,23.13
2023-01-23T20:27:52.370Z,26.13
2023-01-23T20:30:22.019Z,25.55
2023-01-23T20:32:49.817Z,26.42
2023-01-23T20:35:17.348Z,25.35
2023-01-23T20:37:49.593Z,24.55
2023-01-23T20:40:17.117Z,23.50
2023-01-23T20:42:44.525Z,22.95
2023-01-23T20:45:12.091Z,25.15
2023-01-23T20:47:41.551Z,23.50
2023-01-23T20:50:09.466Z,23.50
2023-01-23T20:52:55.715Z,22.75
2023-01-23T20:55:23.374Z,22.92
2023-01-23T20:58:09.528Z,23.20
2023-01-23T21:00:36.815Z,22.13
2023-01-23T21:03:05.316Z,22.92
2023-01-23T21:05:32.609Z,22.50
2023-01-23T21:07:59.863Z,24.08
2023-01-23T21:10:29.999Z,21.75
2023-01-23T21:12:57.248Z,21.25
2023-01-23T21:15:24.601Z,23.33
2023-01-23T21:17:51.891Z,22.55
2023-01-23T21:20:19.170Z,21.58
2023-01-23T21:22:46.412Z,20.40
2023-01-23T21:25:14.058Z,20.88
2023-01-23T21:27:41.374Z,21.80
2023-01-23T21:30:09.344Z,21.75
2023-01-23T21:32:36.622Z,21.80
2023-01-23T21:35:06.320Z,21.15
2023-01-23T21:37:36.172Z,21.38
2023-01-23T21:40:03.671Z,21.27
2023-01-23T21:42:30.985Z,21.15
2023-01-23T21:44:58.292Z,21.25
2023-01-23T21:47:25.567Z,21.25
2023-01-23T21:49:55.337Z,22.00
2023-01-23T21:52:22.618Z,21.73
2023-01-23T21:54:49.872Z,22.48
2023-01-23T21:57:17.129Z,21.60
2023-01-23T22:00:06.813Z,20.98
2023-01-23T22:02:34.152Z,21.60
2023-01-23T22:05:04.088Z,20.67
2023-01-23T22:07:31.470Z,21.05
2023-01-23T22:09:58.720Z,20.08
2023-01-23T22:12:28.959Z,20.58
2023-01-23T22:14:56.273Z,18.85
2023-01-23T22:17:23.557Z,21.63
2023-01-23T22:19:53.689Z,20.20
2023-01-23T22:22:20.957Z,20.75
2023-01-23T22:24:48.206Z,20.75
2023-01-23T22:27:15.600Z,20.30
2023-01-23T22:29:43.527Z,20.73
2023-01-23T22:32:10.839Z,21.77
2023-01-23T22:34:38.115Z,20.88
2023-01-23T22:37:05.402Z,20.25
2023-01-23T22:39:34.974Z,19.98
2023-01-23T22:42:04.462Z,20.10
2023-01-23T22:44:31.771Z,19.67
2023-01-23T22:47:01.408Z,19.85
2023-01-23T22:49:28.701Z,18.70
2023-01-23T22:51:58.146Z,21.17
2023-01-23T22:54:25.458Z,21.23
2023-01-23T22:56:52.738Z,19.83
2023-01-23T22:59:19.975Z,20.63
2023-01-23T23:01:49.373Z,19.67
2023-01-23T23:04:16.661Z,21.08
2023-01-23T23:06:46.063Z,21.35
2023-01-23T23:09:13.387Z,20.98
2023-01-23T23:11:44.060Z,20.52
2023-01-23T23:14:13.931Z,20.73
2023-01-23T23:16:43.588Z,20.92
2023-01-23T23:19:11.082Z,20.25
2023-01-23T23:21:43.512Z,21.52
2023-01-23T23:24:15.839Z,19.98
2023-01-23T23:26:45.643Z,20.60
2023-01-23T23:29:13.141Z,20.77
2023-01-23T23:31:40.781Z,19.88
2023-01-23T23:34:08.505Z,20.67
2023-01-23T23:36:35.965Z,20.98
2023-01-23T23:39:03.456Z,20.20
2023-01-23T23:41:31.065Z,20.63
2023-01-23T23:43:58.326Z,21.20
2023-01-23T23:46:28.012Z,21.27
2023-01-23T23:48:55.320Z,20.95
2023-01-23T23:51:23.122Z,19.85
2023-01-23T23:53:50.374Z,20.55
2023-01-23T23:56:23.247Z,20.85
2023-01-23T23:58:50.996Z,21.20
